sensor_id;sensor_type;location;lat;lon;timestamp;pressure;altitude;pressure_sealevel;temperature;humidity
10079;BME280;5078;42.544;22.966;2023-10-08T00:01:08;94426.69;;;9.79;99.86
10079;BME280;5078;42.544;22.966;2023-10-08T00:03:37;94426.81;;;10.03;97.55
10079;BME280;5078;42.544;22.966;2023-10-08T00:06:04;94423.19;;;9.78;98.68
10079;BME280;5078;42.544;22.966;2023-10-08T00:08:38;94418.91;;;9.51;100.00
10079;BME280;5078;42.544;22.966;2023-10-08T00:11:04;94412.16;;;9.57;100.00
10079;BME280;5078;42.544;22.966;2023-10-08T00:13:34;94421.28;;;9.62;100.00
10079;BME280;5078;42.544;22.966;2023-10-08T00:16:05;94415.69;;;9.39;100.00
10079;BME280;5078;42.544;22.966;2023-10-08T00:18:35;94418.59;;;9.54;100.00
10079;BME280;5078;42.544;22.966;2023-10-08T00:21:03;94413.78;;;9.49;99.65
10079;BME280;5078;42.544;22.966;2023-10-08T00:23:41;94412.66;;;9.60;98.19
10079;BME280;5078;42.544;22.966;2023-10-08T00:26:14;94411.16;;;9.58;98.06
10079;BME280;5078;42.544;22.966;2023-10-08T00:28:45;94407.84;;;9.29;98.20
10079;BME280;5078;42.544;22.966;2023-10-08T00:31:13;94407.06;;;9.11;100.00
10079;BME280;5078;42.544;22.966;2023-10-08T00:33:43;94400.13;;;9.18;100.00
10079;BME280;5078;42.544;22.966;2023-10-08T00:36:09;94401.63;;;8.95;100.00
10079;BME280;5078;42.544;22.966;2023-10-08T00:38:44;94394.78;;;9.10;100.00
10079;BME280;5078;42.544;22.966;2023-10-08T00:41:15;94398.50;;;9.17;100.00
10079;BME280;5078;42.544;22.966;2023-10-08T00:43:42;94390.25;;;9.20;100.00
10079;BME280;5078;42.544;22.966;2023-10-08T00:46:11;94390.03;;;9.14;100.00
10079;BME280;5078;42.544;22.966;2023-10-08T00:48:47;94393.69;;;9.39;99.41
10079;BME280;5078;42.544;22.966;2023-10-08T00:51:14;94388.59;;;9.45;98.52
10079;BME280;5078;42.544;22.966;2023-10-08T00:53:54;94393.16;;;9.35;98.74
10079;BME280;5078;42.544;22.966;2023-10-08T00:56:25;94395.63;;;9.11;100.00
10079;BME280;5078;42.544;22.966;2023-10-08T00:58:55;94386.72;;;8.76;100.00
10079;BME280;5078;42.544;22.966;2023-10-08T01:01:26;94383.03;;;8.51;100.00
10079;BME280;5078;42.544;22.966;2023-10-08T01:03:53;94387.31;;;8.34;100.00
10079;BME280;5078;42.544;22.966;2023-10-08T01:06:21;94382.97;;;8.42;100.00
10079;BME280;5078;42.544;22.966;2023-10-08T01:08:48;94384.66;;;8.61;100.00
10079;BME280;5078;42.544;22.966;2023-10-08T01:11:21;94392.25;;;8.47;100.00
10079;BME280;5078;42.544;22.966;2023-10-08T01:14:08;94388.94;;;8.45;100.00
10079;BME280;5078;42.544;22.966;2023-10-08T01:16:36;94397.63;;;8.55;100.00
10079;BME280;5078;42.544;22.966;2023-10-08T01:19:05;94393.47;;;8.25;100.00
10079;BME280;5078;42.544;22.966;2023-10-08T01:21:38;94388.63;;;8.20;100.00
10079;BME280;5078;42.544;22.966;2023-10-08T01:24:06;94378.44;;;7.80;100.00
10079;BME280;5078;42.544;22.966;2023-10-08T01:26:33;94388.56;;;7.47;100.00
10079;BME280;5078;42.544;22.966;2023-10-08T01:29:04;94382.63;;;7.35;100.00
10079;BME280;5078;42.544;22.966;2023-10-08T01:31:32;94382.91;;;7.32;100.00
10079;BME280;5078;42.544;22.966;2023-10-08T01:33:59;94379.63;;;7.57;100.00
10079;BME280;5078;42.544;22.966;2023-10-08T01:36:30;94375.09;;;7.77;100.00
10079;BME280;5078;42.544;22.966;2023-10-08T01:38:57;94369.78;;;7.87;100.00
10079;BME280;5078;42.544;22.966;2023-10-08T01:41:26;94369.47;;;7.90;100.00
10079;BME280;5078;42.544;22.966;2023-10-08T01:43:56;94373.53;;;8.12;100.00
10079;BME280;5078;42.544;22.966;2023-10-08T01:46:24;94371.28;;;8.17;100.00
10079;BME280;5078;42.544;22.966;2023-10-08T01:48:52;94370.56;;;7.97;100.00
10079;BME280;5078;42.544;22.966;2023-10-08T01:51:30;94363.47;;;7.98;100.00
10079;BME280;5078;42.544;22.966;2023-10-08T01:54:04;94374.06;;;8.16;100.00
10079;BME280;5078;42.544;22.966;2023-10-08T01:56:39;94376.66;;;7.98;100.00
10079;BME280;5078;42.544;22.966;2023-10-08T01:59:08;94375.00;;;7.97;100.00
10079;BME280;5078;42.544;22.966;2023-10-08T02:01:36;94361.84;;;7.60;100.00
10079;BME280;5078;42.544;22.966;2023-10-08T02:04:05;94368.13;;;8.14;100.00
10079;BME280;5078;42.544;22.966;2023-10-08T02:06:33;94366.72;;;8.10;100.00
10079;BME280;5078;42.544;22.966;2023-10-08T02:09:00;94377.50;;;7.98;100.00
10079;BME280;5078;42.544;22.966;2023-10-08T02:11:31;94386.19;;;7.44;100.00
10079;BME280;5078;42.544;22.966;2023-10-08T02:14:10;94377.41;;;7.53;100.00
10079;BME280;5078;42.544;22.966;2023-10-08T02:16:36;94372.03;;;7.45;100.00
10079;BME280;5078;42.544;22.966;2023-10-08T02:19:04;94364.78;;;7.56;100.00
10079;BME280;5078;42.544;22.966;2023-10-08T02:21:32;94365.66;;;7.75;100.00
10079;BME280;5078;42.544;22.966;2023-10-08T02:23:58;94379.47;;;7.69;100.00
10079;BME280;5078;42.544;22.966;2023-10-08T02:26:25;94366.66;;;7.74;100.00
10079;BME280;5078;42.544;22.966;2023-10-08T02:28:52;94379.00;;;7.36;100.00
10079;BME280;5078;42.544;22.966;2023-10-08T02:31:20;94373.78;;;7.26;100.00
10079;BME280;5078;42.544;22.966;2023-10-08T02:33:48;94363.75;;;7.30;100.00
10079;BME280;5078;42.544;22.966;2023-10-08T02:36:15;94361.25;;;7.66;100.00
10079;BME280;5078;42.544;22.966;2023-10-08T02:38:42;94359.66;;;7.83;100.00
10079;BME280;5078;42.544;22.966;2023-10-08T02:41:08;94360.91;;;7.78;100.00
10079;BME280;5078;42.544;22.966;2023-10-08T02:43:36;94358.09;;;7.15;100.00
10079;BME280;5078;42.544;22.966;2023-10-08T02:46:03;94358.84;;;6.88;100.00
10079;BME280;5078;42.544;22.966;2023-10-08T02:48:34;94359.09;;;7.04;100.00
10079;BME280;5078;42.544;22.966;2023-10-08T02:51:01;94366.72;;;7.17;100.00
10079;BME280;5078;42.544;22.966;2023-10-08T02:53:38;94364.47;;;7.22;100.00
10079;BME280;5078;42.544;22.966;2023-10-08T02:56:07;94380.91;;;6.87;100.00
10079;BME280;5078;42.544;22.966;2023-10-08T02:58:38;94374.72;;;7.35;100.00
10079;BME280;5078;42.544;22.966;2023-10-08T03:01:05;94380.41;;;7.30;100.00
10079;BME280;5078;42.544;22.966;2023-10-08T03:03:33;94375.03;;;7.12;100.00
10079;BME280;5078;42.544;22.966;2023-10-08T03:06:02;94380.97;;;7.34;100.00
10079;BME280;5078;42.544;22.966;2023-10-08T03:08:29;94386.19;;;6.97;100.00
10079;BME280;5078;42.544;22.966;2023-10-08T03:10:56;94385.28;;;7.16;100.00
10079;BME280;5078;42.544;22.966;2023-10-08T03:13:28;94385.31;;;7.06;100.00
10079;BME280;5078;42.544;22.966;2023-10-08T03:15:54;94392.03;;;6.52;100.00
10079;BME280;5078;42.544;22.966;2023-10-08T03:18:34;94388.81;;;6.48;100.00
10079;BME280;5078;42.544;22.966;2023-10-08T03:21:02;94399.78;;;6.73;100.00
10079;BME280;5078;42.544;22.966;2023-10-08T03:23:30;94376.47;;;6.39;100.00
10079;BME280;5078;42.544;22.966;2023-10-08T03:26:00;94388.13;;;6.65;100.00
10079;BME280;5078;42.544;22.966;2023-10-08T03:28:35;94359.56;;;6.51;100.00
10079;BME280;5078;42.544;22.966;2023-10-08T03:31:03;94384.78;;;6.83;100.00
10079;BME280;5078;42.544;22.966;2023-10-08T03:33:31;94376.75;;;6.94;100.00
10079;BME280;5078;42.544;22.966;2023-10-08T03:36:01;94364.50;;;7.03;100.00
10079;BME280;5078;42.544;22.966;2023-10-08T03:38:36;94371.59;;;7.12;100.00
10079;BME280;5078;42.544;22.966;2023-10-08T03:41:16;94375.63;;;6.97;100.00
10079;BME280;5078;42.544;22.966;2023-10-08T03:43:45;94371.78;;;6.62;100.00
10079;BME280;5078;42.544;22.966;2023-10-08T03:46:19;94371.78;;;6.72;100.00
10079;BME280;5078;42.544;22.966;2023-10-08T03:48:49;94386.16;;;6.29;100.00
10079;BME280;5078;42.544;22.966;2023-10-08T03:51:18;94378.25;;;6.09;100.00
10079;BME280;5078;42.544;22.966;2023-10-08T03:53:47;94365.69;;;6.42;100.00
10079;BME280;5078;42.544;22.966;2023-10-08T03:56:25;94364.81;;;6.70;100.00
10079;BME280;5078;42.544;22.966;2023-10-08T03:58:55;94368.56;;;6.97;100.00
10079;BME280;5078;42.544;22.966;2023-10-08T04:01:25;94360.66;;;6.97;100.00
10079;BME280;5078;42.544;22.966;2023-10-08T04:03:57;94361.19;;;6.91;100.00
10079;BME280;5078;42.544;22.966;2023-10-08T04:06:28;94339.84;;;6.84;100.00
10079;BME280;5078;42.544;22.966;2023-10-08T04:08:56;94366.47;;;6.91;100.00
10079;BME280;5078;42.544;22.966;2023-10-08T04:11:37;94364.50;;;7.03;100.00
10079;BME280;5078;42.544;22.966;2023-10-08T04:14:17;94363.41;;;7.05;100.00
10079;BME280;5078;42.544;22.966;2023-10-08T04:16:45;94352.00;;;7.15;100.00
10079;BME280;5078;42.544;22.966;2023-10-08T04:19:12;94358.47;;;7.30;100.00
10079;BME280;5078;42.544;22.966;2023-10-08T04:21:45;94360.22;;;7.49;100.00
10079;BME280;5078;42.544;22.966;2023-10-08T04:24:20;94363.47;;;7.33;100.00
10079;BME280;5078;42.544;22.966;2023-10-08T04:26:56;94361.13;;;7.30;100.00
10079;BME280;5078;42.544;22.966;2023-10-08T04:29:24;94336.66;;;6.90;100.00
10079;BME280;5078;42.544;22.966;2023-10-08T04:31:51;94366.72;;;7.07;100.00
10079;BME280;5078;42.544;22.966;2023-10-08T04:34:27;94365.06;;;7.06;100.00
10079;BME280;5078;42.544;22.966;2023-10-08T04:36:55;94355.66;;;6.94;100.00
10079;BME280;5078;42.544;22.966;2023-10-08T04:39:27;94356.78;;;6.82;100.00
10079;BME280;5078;42.544;22.966;2023-10-08T04:41:58;94357.59;;;7.02;100.00
10079;BME280;5078;42.544;22.966;2023-10-08T04:44:31;94356.50;;;6.85;100.00
10079;BME280;5078;42.544;22.966;2023-10-08T04:46:59;94356.50;;;6.85;100.00
10079;BME280;5078;42.544;22.966;2023-10-08T04:49:30;94355.41;;;6.78;100.00
10079;BME280;5078;42.544;22.966;2023-10-08T04:52:00;94341.28;;;6.59;100.00
10079;BME280;5078;42.544;22.966;2023-10-08T04:54:30;94363.16;;;6.31;100.00
10079;BME280;5078;42.544;22.966;2023-10-08T04:56:58;94361.47;;;6.10;100.00
10079;BME280;5078;42.544;22.966;2023-10-08T04:59:26;94368.53;;;6.00;100.00
10079;BME280;5078;42.544;22.966;2023-10-08T05:01:58;94370.66;;;5.75;100.00
10079;BME280;5078;42.544;22.966;2023-10-08T05:04:47;94369.81;;;6.25;100.00
10079;BME280;5078;42.544;22.966;2023-10-08T05:07:24;94369.28;;;6.51;100.00
10079;BME280;5078;42.544;22.966;2023-10-08T05:10:19;94359.97;;;6.56;100.00
10079;BME280;5078;42.544;22.966;2023-10-08T05:13:11;94361.38;;;6.70;100.00
10079;BME280;5078;42.544;22.966;2023-10-08T05:15:55;94361.25;;;6.72;100.00
10079;BME280;5078;42.544;22.966;2023-10-08T05:18:37;94359.66;;;6.88;100.00
10079;BME280;5078;42.544;22.966;2023-10-08T05:21:39;94361.25;;;7.28;100.00
10079;BME280;5078;42.544;22.966;2023-10-08T05:24:28;94356.56;;;7.87;100.00
10079;BME280;5078;42.544;22.966;2023-10-08T05:27:04;94363.06;;;8.38;100.00
10079;BME280;5078;42.544;22.966;2023-10-08T05:30:02;94342.78;;;8.39;100.00
10079;BME280;5078;42.544;22.966;2023-10-08T05:32:41;94365.38;;;8.87;100.00
10079;BME280;5078;42.544;22.966;2023-10-08T05:35:31;94352.53;;;9.44;100.00
10079;BME280;5078;42.544;22.966;2023-10-08T05:38:15;94351.75;;;9.52;95.45
10079;BME280;5078;42.544;22.966;2023-10-08T05:40:50;94347.63;;;9.58;93.42
10079;BME280;5078;42.544;22.966;2023-10-08T05:43:31;94349.47;;;10.42;85.96
10079;BME280;5078;42.544;22.966;2023-10-08T05:46:21;94354.06;;;9.89;86.54
10079;BME280;5078;42.544;22.966;2023-10-08T05:49:12;94375.78;;;9.33;91.58
10079;BME280;5078;42.544;22.966;2023-10-08T05:51:52;94366.84;;;10.36;85.78
10079;BME280;5078;42.544;22.966;2023-10-08T05:54:36;94365.75;;;11.05;79.79
10079;BME280;5078;42.544;22.966;2023-10-08T05:57:24;94369.41;;;10.71;77.76
10079;BME280;5078;42.544;22.966;2023-10-08T06:00:05;94380.53;;;10.24;89.81
10079;BME280;5078;42.544;22.966;2023-10-08T06:03:08;94381.13;;;10.44;86.24
10079;BME280;5078;42.544;22.966;2023-10-08T06:05:37;94377.78;;;10.33;87.78
10079;BME280;5078;42.544;22.966;2023-10-08T06:08:12;94375.22;;;10.91;84.15
10079;BME280;5078;42.544;22.966;2023-10-08T06:10:40;94377.66;;;11.58;79.48
10079;BME280;5078;42.544;22.966;2023-10-08T06:13:23;94368.28;;;12.34;69.28
10079;BME280;5078;42.544;22.966;2023-10-08T06:16:10;94376.72;;;12.06;70.41
10079;BME280;5078;42.544;22.966;2023-10-08T06:18:56;94376.47;;;11.69;75.97
10079;BME280;5078;42.544;22.966;2023-10-08T06:21:22;94369.28;;;11.94;77.12
10079;BME280;5078;42.544;22.966;2023-10-08T06:23:51;94366.69;;;13.02;67.82
10079;BME280;5078;42.544;22.966;2023-10-08T06:26:21;94365.81;;;13.48;62.85
10079;BME280;5078;42.544;22.966;2023-10-08T06:28:52;94368.78;;;13.68;61.03
10079;BME280;5078;42.544;22.966;2023-10-08T06:31:24;94345.28;;;13.56;60.51
10079;BME280;5078;42.544;22.966;2023-10-08T06:33:52;94368.47;;;14.00;60.04
10079;BME280;5078;42.544;22.966;2023-10-08T06:36:18;94366.00;;;14.65;57.18
10079;BME280;5078;42.544;22.966;2023-10-08T06:38:49;94365.34;;;15.21;54.75
10079;BME280;5078;42.544;22.966;2023-10-08T06:41:16;94368.47;;;15.03;54.09
10079;BME280;5078;42.544;22.966;2023-10-08T06:43:45;94362.50;;;14.50;57.30
10079;BME280;5078;42.544;22.966;2023-10-08T06:46:14;94361.28;;;14.31;57.54
10079;BME280;5078;42.544;22.966;2023-10-08T06:48:45;94357.78;;;14.15;58.92
10079;BME280;5078;42.544;22.966;2023-10-08T06:51:14;94355.06;;;14.60;58.99
10079;BME280;5078;42.544;22.966;2023-10-08T06:53:44;94353.28;;;15.53;54.20
10079;BME280;5078;42.544;22.966;2023-10-08T06:56:11;94351.03;;;15.57;53.25
10079;BME280;5078;42.544;22.966;2023-10-08T06:58:38;94346.91;;;14.83;56.29
10079;BME280;5078;42.544;22.966;2023-10-08T07:01:07;94351.44;;;15.53;53.44
10079;BME280;5078;42.544;22.966;2023-10-08T07:03:37;94344.88;;;15.84;53.12
10079;BME280;5078;42.544;22.966;2023-10-08T07:06:04;94348.13;;;16.14;50.62
10079;BME280;5078;42.544;22.966;2023-10-08T07:08:43;94344.91;;;16.26;51.07
10079;BME280;5078;42.544;22.966;2023-10-08T07:11:12;94344.22;;;16.10;52.78
10079;BME280;5078;42.544;22.966;2023-10-08T07:13:39;94341.09;;;17.43;48.07
10079;BME280;5078;42.544;22.966;2023-10-08T07:16:07;94340.47;;;17.74;46.83
10079;BME280;5078;42.544;22.966;2023-10-08T07:18:38;94343.56;;;17.91;46.23
10079;BME280;5078;42.544;22.966;2023-10-08T07:21:04;94338.16;;;18.76;43.76
10079;BME280;5078;42.544;22.966;2023-10-08T07:23:38;94341.84;;;18.30;43.55
10079;BME280;5078;42.544;22.966;2023-10-08T07:26:21;94336.53;;;17.77;44.28
10079;BME280;5078;42.544;22.966;2023-10-08T07:28:50;94343.09;;;18.21;44.12
10079;BME280;5078;42.544;22.966;2023-10-08T07:31:18;94334.06;;;17.62;46.22
10079;BME280;5078;42.544;22.966;2023-10-08T07:33:49;94331.28;;;18.35;45.15
10079;BME280;5078;42.544;22.966;2023-10-08T07:36:21;94321.09;;;18.50;43.81
10079;BME280;5078;42.544;22.966;2023-10-08T07:38:48;94310.78;;;19.24;42.92
10079;BME280;5078;42.544;22.966;2023-10-08T07:41:15;94320.59;;;18.67;42.60
10079;BME280;5078;42.544;22.966;2023-10-08T07:43:45;94308.66;;;18.63;43.33
10079;BME280;5078;42.544;22.966;2023-10-08T07:46:18;94312.16;;;18.63;42.96
10079;BME280;5078;42.544;22.966;2023-10-08T07:48:45;94297.22;;;19.12;43.24
10079;BME280;5078;42.544;22.966;2023-10-08T07:51:14;94291.06;;;19.37;41.98
10079;BME280;5078;42.544;22.966;2023-10-08T07:53:41;94293.41;;;19.77;41.42
10079;BME280;5078;42.544;22.966;2023-10-08T07:56:08;94293.94;;;19.86;41.24
10079;BME280;5078;42.544;22.966;2023-10-08T07:58:36;94293.00;;;20.17;40.63
10079;BME280;5078;42.544;22.966;2023-10-08T08:01:04;94293.28;;;20.45;39.70
10079;BME280;5078;42.544;22.966;2023-10-08T08:03:32;94280.13;;;20.86;39.15
10079;BME280;5078;42.544;22.966;2023-10-08T08:06:02;94279.97;;;22.00;37.73
10079;BME280;5078;42.544;22.966;2023-10-08T08:08:33;94274.09;;;21.56;37.77
10079;BME280;5078;42.544;22.966;2023-10-08T08:11:02;94273.06;;;21.92;36.51
10079;BME280;5078;42.544;22.966;2023-10-08T08:13:32;94272.19;;;22.04;36.24
10079;BME280;5078;42.544;22.966;2023-10-08T08:15:59;94267.53;;;22.23;35.68
10079;BME280;5078;42.544;22.966;2023-10-08T08:18:37;94268.69;;;21.91;35.96
10079;BME280;5078;42.544;22.966;2023-10-08T08:21:09;94266.47;;;21.53;36.98
10079;BME280;5078;42.544;22.966;2023-10-08T08:23:41;94260.06;;;21.24;38.05
10079;BME280;5078;42.544;22.966;2023-10-08T08:26:14;94264.81;;;21.64;36.93
10079;BME280;5078;42.544;22.966;2023-10-08T08:28:52;94260.00;;;21.66;37.13
10079;BME280;5078;42.544;22.966;2023-10-08T08:31:20;94254.94;;;22.28;35.91
10079;BME280;5078;42.544;22.966;2023-10-08T08:33:47;94251.44;;;22.85;35.14
10079;BME280;5078;42.544;22.966;2023-10-08T08:36:22;94247.03;;;23.24;34.15
10079;BME280;5078;42.544;22.966;2023-10-08T08:38:51;94242.09;;;22.76;34.79
10079;BME280;5078;42.544;22.966;2023-10-08T08:41:18;94237.28;;;23.40;33.61
10079;BME280;5078;42.544;22.966;2023-10-08T08:43:48;94241.47;;;23.31;33.49
10079;BME280;5078;42.544;22.966;2023-10-08T08:46:15;94232.03;;;23.84;32.65
10079;BME280;5078;42.544;22.966;2023-10-08T08:48:43;94229.13;;;23.91;33.03
10079;BME280;5078;42.544;22.966;2023-10-08T08:51:10;94218.22;;;24.25;32.94
10079;BME280;5078;42.544;22.966;2023-10-08T08:53:38;94222.25;;;24.44;32.11
10079;BME280;5078;42.544;22.966;2023-10-08T08:56:09;94217.16;;;24.04;32.40
10079;BME280;5078;42.544;22.966;2023-10-08T08:58:36;94214.63;;;23.80;32.43
10079;BME280;5078;42.544;22.966;2023-10-08T09:01:06;94198.91;;;22.81;33.20
10079;BME280;5078;42.544;22.966;2023-10-08T09:03:33;94203.56;;;23.31;32.33
10079;BME280;5078;42.544;22.966;2023-10-08T09:06:02;94210.53;;;23.61;31.83
10079;BME280;5078;42.544;22.966;2023-10-08T09:08:33;94205.78;;;23.51;31.27
10079;BME280;5078;42.544;22.966;2023-10-08T09:11:00;94210.78;;;23.09;31.88
10079;BME280;5078;42.544;22.966;2023-10-08T09:13:31;94206.47;;;23.41;31.43
10079;BME280;5078;42.544;22.966;2023-10-08T09:16:07;94206.47;;;23.41;30.90
10079;BME280;5078;42.544;22.966;2023-10-08T09:18:34;94202.16;;;23.62;30.32
10079;BME280;5078;42.544;22.966;2023-10-08T09:21:11;94209.16;;;23.75;30.45
10079;BME280;5078;42.544;22.966;2023-10-08T09:23:42;94184.84;;;23.80;30.44
10079;BME280;5078;42.544;22.966;2023-10-08T09:26:13;94194.13;;;24.28;30.96
10079;BME280;5078;42.544;22.966;2023-10-08T09:28:44;94197.72;;;24.56;29.20
10079;BME280;5078;42.544;22.966;2023-10-08T09:31:14;94192.53;;;23.88;30.17
10079;BME280;5078;42.544;22.966;2023-10-08T09:33:53;94189.81;;;23.50;30.57
10079;BME280;5078;42.544;22.966;2023-10-08T09:36:20;94189.44;;;23.80;30.21
10079;BME280;5078;42.544;22.966;2023-10-08T09:38:50;94176.22;;;23.83;30.38
10079;BME280;5078;42.544;22.966;2023-10-08T09:41:19;94179.75;;;24.72;28.76
10079;BME280;5078;42.544;22.966;2023-10-08T09:43:47;94174.22;;;24.62;29.05
10079;BME280;5078;42.544;22.966;2023-10-08T09:46:18;94165.97;;;24.79;28.89
10079;BME280;5078;42.544;22.966;2023-10-08T09:48:49;94178.53;;;25.49;28.39
10079;BME280;5078;42.544;22.966;2023-10-08T09:51:17;94164.78;;;26.09;28.01
10079;BME280;5078;42.544;22.966;2023-10-08T09:53:52;94155.00;;;27.01;26.34
10079;BME280;5078;42.544;22.966;2023-10-08T09:56:20;94153.91;;;27.18;26.29
10079;BME280;5078;42.544;22.966;2023-10-08T09:58:48;94127.50;;;26.93;26.12
10079;BME280;5078;42.544;22.966;2023-10-08T10:01:17;94148.63;;;26.50;26.84
10079;BME280;5078;42.544;22.966;2023-10-08T10:03:45;94144.94;;;27.02;25.70
10079;BME280;5078;42.544;22.966;2023-10-08T10:06:13;94135.41;;;27.50;26.18
10079;BME280;5078;42.544;22.966;2023-10-08T10:08:42;94116.00;;;27.72;25.60
10079;BME280;5078;42.544;22.966;2023-10-08T10:11:09;94142.72;;;27.86;25.43
10079;BME280;5078;42.544;22.966;2023-10-08T10:13:39;94138.13;;;27.50;26.47
10079;BME280;5078;42.544;22.966;2023-10-08T10:16:09;94128.03;;;27.61;26.30
10079;BME280;5078;42.544;22.966;2023-10-08T10:18:36;94130.91;;;26.42;26.15
10079;BME280;5078;42.544;22.966;2023-10-08T10:21:25;94130.75;;;26.84;26.27
10079;BME280;5078;42.544;22.966;2023-10-08T10:23:53;94127.03;;;26.17;26.49
10079;BME280;5078;42.544;22.966;2023-10-08T10:26:25;94118.13;;;26.37;26.53
10079;BME280;5078;42.544;22.966;2023-10-08T10:29:19;94122.38;;;26.08;27.44
10079;BME280;5078;42.544;22.966;2023-10-08T10:31:49;94115.00;;;27.02;27.21
10079;BME280;5078;42.544;22.966;2023-10-08T10:34:19;94106.81;;;27.32;26.34
10079;BME280;5078;42.544;22.966;2023-10-08T10:36:50;94094.28;;;27.42;26.08
10079;BME280;5078;42.544;22.966;2023-10-08T10:39:21;94085.88;;;26.82;26.08
10079;BME280;5078;42.544;22.966;2023-10-08T10:41:54;94081.75;;;27.36;25.67
10079;BME280;5078;42.544;22.966;2023-10-08T10:44:27;94069.41;;;27.84;25.56
10079;BME280;5078;42.544;22.966;2023-10-08T10:46:57;94076.78;;;27.79;25.71
10079;BME280;5078;42.544;22.966;2023-10-08T10:49:42;94074.41;;;27.46;26.58
10079;BME280;5078;42.544;22.966;2023-10-08T10:52:20;94077.97;;;26.85;27.31
10079;BME280;5078;42.544;22.966;2023-10-08T10:54:58;94074.53;;;26.01;27.99
10079;BME280;5078;42.544;22.966;2023-10-08T10:57:26;94066.72;;;26.31;28.02
10079;BME280;5078;42.544;22.966;2023-10-08T11:00:02;94066.41;;;26.12;27.94
10079;BME280;5078;42.544;22.966;2023-10-08T11:02:45;94072.88;;;25.05;29.79
10079;BME280;5078;42.544;22.966;2023-10-08T11:05:15;94057.53;;;25.69;29.19
10079;BME280;5078;42.544;22.966;2023-10-08T11:07:46;94053.22;;;26.61;28.91
10079;BME280;5078;42.544;22.966;2023-10-08T11:10:14;94043.13;;;27.34;28.83
10079;BME280;5078;42.544;22.966;2023-10-08T11:12:41;94046.94;;;27.12;28.35
10079;BME280;5078;42.544;22.966;2023-10-08T11:15:12;94050.22;;;26.94;28.79
10079;BME280;5078;42.544;22.966;2023-10-08T11:17:41;94049.22;;;25.91;30.02
10079;BME280;5078;42.544;22.966;2023-10-08T11:23:00;94049.69;;;25.77;30.47
10079;BME280;5078;42.544;22.966;2023-10-08T11:25:52;94040.06;;;26.28;30.22
10079;BME280;5078;42.544;22.966;2023-10-08T11:28:19;94049.06;;;26.38;29.92
10079;BME280;5078;42.544;22.966;2023-10-08T11:30:47;94042.81;;;26.43;29.52
10079;BME280;5078;42.544;22.966;2023-10-08T11:33:17;94046.50;;;25.91;30.20
10079;BME280;5078;42.544;22.966;2023-10-08T11:35:55;94043.28;;;26.04;30.06
10079;BME280;5078;42.544;22.966;2023-10-08T11:38:25;94036.09;;;25.72;30.79
10079;BME280;5078;42.544;22.966;2023-10-08T11:40:54;94044.41;;;25.50;31.03
10079;BME280;5078;42.544;22.966;2023-10-08T11:43:23;94053.63;;;25.44;31.04
10079;BME280;5078;42.544;22.966;2023-10-08T11:45:51;94049.91;;;25.66;30.95
10079;BME280;5078;42.544;22.966;2023-10-08T11:48:18;94051.16;;;25.43;31.09
10079;BME280;5078;42.544;22.966;2023-10-08T11:50:53;94045.97;;;24.98;31.47
10079;BME280;5078;42.544;22.966;2023-10-08T11:53:23;94047.75;;;25.20;31.56
10079;BME280;5078;42.544;22.966;2023-10-08T11:55:51;94045.16;;;24.98;31.90
10079;BME280;5078;42.544;22.966;2023-10-08T11:58:21;94045.72;;;25.00;31.66
10079;BME280;5078;42.544;22.966;2023-10-08T12:01:02;94054.19;;;24.71;31.62
10079;BME280;5078;42.544;22.966;2023-10-08T12:03:30;94050.91;;;24.69;31.59
10079;BME280;5078;42.544;22.966;2023-10-08T12:05:57;94052.50;;;24.65;31.50
10079;BME280;5078;42.544;22.966;2023-10-08T12:08:26;94045.31;;;24.22;31.89
10079;BME280;5078;42.544;22.966;2023-10-08T12:10:55;94048.97;;;24.10;32.60
10079;BME280;5078;42.544;22.966;2023-10-08T12:13:25;94037.41;;;24.20;32.83
10079;BME280;5078;42.544;22.966;2023-10-08T12:15:54;94046.38;;;24.48;31.76
10079;BME280;5078;42.544;22.966;2023-10-08T12:18:31;94032.03;;;24.25;32.30
10079;BME280;5078;42.544;22.966;2023-10-08T12:21:00;94034.75;;;24.25;32.57
10079;BME280;5078;42.544;22.966;2023-10-08T12:23:27;94037.47;;;23.98;32.62
10079;BME280;5078;42.544;22.966;2023-10-08T12:25:58;94040.84;;;24.10;32.42
10079;BME280;5078;42.544;22.966;2023-10-08T12:28:26;94038.22;;;24.21;32.35
10079;BME280;5078;42.544;22.966;2023-10-08T12:30:53;94040.28;;;24.08;32.92
10079;BME280;5078;42.544;22.966;2023-10-08T12:33:22;94041.94;;;24.09;33.01
10079;BME280;5078;42.544;22.966;2023-10-08T12:35:49;94030.16;;;23.99;33.07
10079;BME280;5078;42.544;22.966;2023-10-08T12:38:18;94039.88;;;23.73;33.53
10079;BME280;5078;42.544;22.966;2023-10-08T12:40:47;94033.06;;;23.92;33.32
10079;BME280;5078;42.544;22.966;2023-10-08T12:43:19;94036.44;;;23.77;33.31
10079;BME280;5078;42.544;22.966;2023-10-08T12:45:47;94030.88;;;23.89;33.31
10079;BME280;5078;42.544;22.966;2023-10-08T12:48:21;94016.56;;;23.94;33.57
10079;BME280;5078;42.544;22.966;2023-10-08T12:50:48;94036.28;;;24.16;33.18
10079;BME280;5078;42.544;22.966;2023-10-08T12:53:22;94024.03;;;23.81;33.43
10079;BME280;5078;42.544;22.966;2023-10-08T12:55:53;94029.66;;;23.58;33.25
10079;BME280;5078;42.544;22.966;2023-10-08T12:58:22;94029.66;;;23.58;33.48
10079;BME280;5078;42.544;22.966;2023-10-08T13:00:52;94033.06;;;23.70;33.74
10079;BME280;5078;42.544;22.966;2023-10-08T13:03:24;94042.16;;;23.59;33.88
10079;BME280;5078;42.544;22.966;2023-10-08T13:05:51;94038.28;;;23.55;33.75
10079;BME280;5078;42.544;22.966;2023-10-08T13:08:19;94027.72;;;23.53;33.62
10079;BME280;5078;42.544;22.966;2023-10-08T13:10:45;94028.66;;;23.64;33.33
10079;BME280;5078;42.544;22.966;2023-10-08T13:13:12;94008.59;;;23.60;33.36
10079;BME280;5078;42.544;22.966;2023-10-08T13:15:41;94019.28;;;23.72;33.50
10079;BME280;5078;42.544;22.966;2023-10-08T13:18:08;94032.31;;;23.53;33.84
10079;BME280;5078;42.544;22.966;2023-10-08T13:20:35;94017.88;;;23.25;34.06
10079;BME280;5078;42.544;22.966;2023-10-08T13:23:02;94013.44;;;23.58;33.43
10079;BME280;5078;42.544;22.966;2023-10-08T13:25:29;94014.00;;;23.82;33.24